sensor_id;sensor_type;location;lat;lon;timestamp;P1;durP1;ratioP1;P2;durP2;ratioP2
60612;SDS011;46443;59.792;17.626;2023-02-15T00:01:08;16.20;;;8.20;;
60612;SDS011;46443;59.792;17.626;2023-02-15T00:03:35;20.65;;;8.77;;
60612;SDS011;46443;59.792;17.626;2023-02-15T00:06:01;17.42;;;8.13;;
60612;SDS011;46443;59.792;17.626;2023-02-15T00:08:27;17.08;;;7.30;;
60612;SDS011;46443;59.792;17.626;2023-02-15T00:10:53;16.42;;;7.57;;
60612;SDS011;46443;59.792;17.626;2023-02-15T00:13:28;15.63;;;7.93;;
60612;SDS011;46443;59.792;17.626;2023-02-15T00:15:54;16.05;;;7.25;;
60612;SDS011;46443;59.792;17.626;2023-02-15T00:18:25;12.93;;;6.55;;
60612;SDS011;46443;59.792;17.626;2023-02-15T00:20:51;14.38;;;6.47;;
60612;SDS011;46443;59.792;17.626;2023-02-15T00:23:17;13.88;;;6.40;;
60612;SDS011;46443;59.792;17.626;2023-02-15T00:25:43;12.80;;;5.82;;
60612;SDS011;46443;59.792;17.626;2023-02-15T00:28:09;13.05;;;5.85;;
60612;SDS011;46443;59.792;17.626;2023-02-15T00:30:35;13.82;;;6.30;;
60612;SDS011;46443;59.792;17.626;2023-02-15T00:33:01;11.98;;;6.03;;
60612;SDS011;46443;59.792;17.626;2023-02-15T00:35:27;9.50;;;5.00;;
60612;SDS011;46443;59.792;17.626;2023-02-15T00:37:54;11.77;;;5.18;;
60612;SDS011;46443;59.792;17.626;2023-02-15T00:40:20;10.18;;;4.63;;
60612;SDS011;46443;59.792;17.626;2023-02-15T00:42:46;10.90;;;5.43;;
60612;SDS011;46443;59.792;17.626;2023-02-15T00:45:12;11.15;;;5.32;;
60612;SDS011;46443;59.792;17.626;2023-02-15T00:47:38;9.93;;;5.70;;
60612;SDS011;46443;59.792;17.626;2023-02-15T00:50:04;10.70;;;5.95;;
60612;SDS011;46443;59.792;17.626;2023-02-15T00:52:30;12.23;;;6.00;;
60612;SDS011;46443;59.792;17.626;2023-02-15T00:54:56;10.15;;;5.53;;
60612;SDS011;46443;59.792;17.626;2023-02-15T00:57:22;9.18;;;4.93;;
60612;SDS011;46443;59.792;17.626;2023-02-15T00:59:48;8.43;;;4.75;;
60612;SDS011;46443;59.792;17.626;2023-02-15T01:02:15;7.30;;;3.95;;
60612;SDS011;46443;59.792;17.626;2023-02-15T01:04:41;6.93;;;4.22;;
60612;SDS011;46443;59.792;17.626;2023-02-15T01:07:07;9.10;;;3.70;;
60612;SDS011;46443;59.792;17.626;2023-02-15T01:09:33;7.95;;;4.00;;
60612;SDS011;46443;59.792;17.626;2023-02-15T01:11:59;7.75;;;4.18;;
60612;SDS011;46443;59.792;17.626;2023-02-15T01:14:25;5.97;;;3.35;;
60612;SDS011;46443;59.792;17.626;2023-02-15T01:16:51;7.38;;;3.97;;
60612;SDS011;46443;59.792;17.626;2023-02-15T01:19:17;8.15;;;4.28;;
60612;SDS011;46443;59.792;17.626;2023-02-15T01:21:43;8.93;;;4.53;;
60612;SDS011;46443;59.792;17.626;2023-02-15T01:24:12;10.13;;;5.15;;
60612;SDS011;46443;59.792;17.626;2023-02-15T01:26:38;9.77;;;4.55;;
60612;SDS011;46443;59.792;17.626;2023-02-15T01:29:04;8.32;;;3.95;;
60612;SDS011;46443;59.792;17.626;2023-02-15T01:31:30;9.32;;;4.28;;
60612;SDS011;46443;59.792;17.626;2023-02-15T01:33:56;9.68;;;4.40;;
60612;SDS011;46443;59.792;17.626;2023-02-15T01:36:22;9.43;;;4.07;;
60612;SDS011;46443;59.792;17.626;2023-02-15T01:38:48;10.38;;;4.90;;
60612;SDS011;46443;59.792;17.626;2023-02-15T01:41:15;10.77;;;5.03;;
60612;SDS011;46443;59.792;17.626;2023-02-15T01:43:58;10.82;;;4.85;;
60612;SDS011;46443;59.792;17.626;2023-02-15T01:46:47;11.35;;;5.20;;
60612;SDS011;46443;59.792;17.626;2023-02-15T01:49:11;10.50;;;4.60;;
60612;SDS011;46443;59.792;17.626;2023-02-15T01:51:39;12.30;;;5.00;;
60612;SDS011;46443;59.792;17.626;2023-02-15T01:54:19;10.20;;;4.78;;
60612;SDS011;46443;59.792;17.626;2023-02-15T01:56:46;10.82;;;4.80;;
60612;SDS011;46443;59.792;17.626;2023-02-15T01:59:14;10.73;;;5.03;;
60612;SDS011;46443;59.792;17.626;2023-02-15T02:01:41;9.25;;;4.72;;
60612;SDS011;46443;59.792;17.626;2023-02-15T02:04:15;7.90;;;4.38;;
60612;SDS011;46443;59.792;17.626;2023-02-15T02:06:42;10.93;;;5.43;;
60612;SDS011;46443;59.792;17.626;2023-02-15T02:09:09;8.38;;;4.28;;
60612;SDS011;46443;59.792;17.626;2023-02-15T02:11:36;8.02;;;4.72;;
60612;SDS011;46443;59.792;17.626;2023-02-15T02:14:03;8.80;;;4.45;;
60612;SDS011;46443;59.792;17.626;2023-02-15T02:19:32;6.82;;;4.30;;
60612;SDS011;46443;59.792;17.626;2023-02-15T02:27:29;8.23;;;4.47;;
60612;SDS011;46443;59.792;17.626;2023-02-15T02:30:06;8.23;;;4.55;;
60612;SDS011;46443;59.792;17.626;2023-02-15T02:38:00;8.27;;;4.10;;
60612;SDS011;46443;59.792;17.626;2023-02-15T02:42:55;9.40;;;4.25;;
60612;SDS011;46443;59.792;17.626;2023-02-15T02:45:25;9.18;;;4.63;;
60612;SDS011;46443;59.792;17.626;2023-02-15T02:47:56;7.93;;;4.32;;
60612;SDS011;46443;59.792;17.626;2023-02-15T02:50:28;11.35;;;5.13;;
60612;SDS011;46443;59.792;17.626;2023-02-15T02:52:56;9.80;;;4.22;;
60612;SDS011;46443;59.792;17.626;2023-02-15T02:55:27;10.63;;;4.88;;
60612;SDS011;46443;59.792;17.626;2023-02-15T03:00:39;11.40;;;5.22;;
60612;SDS011;46443;59.792;17.626;2023-02-15T03:03:09;10.75;;;5.55;;
60612;SDS011;46443;59.792;17.626;2023-02-15T03:05:37;13.37;;;5.23;;
60612;SDS011;46443;59.792;17.626;2023-02-15T03:08:06;10.25;;;5.05;;
60612;SDS011;46443;59.792;17.626;2023-02-15T03:10:34;11.00;;;4.65;;
60612;SDS011;46443;59.792;17.626;2023-02-15T03:13:01;11.25;;;4.82;;
60612;SDS011;46443;59.792;17.626;2023-02-15T03:15:32;10.80;;;4.93;;
60612;SDS011;46443;59.792;17.626;2023-02-15T03:18:20;12.10;;;5.30;;
60612;SDS011;46443;59.792;17.626;2023-02-15T03:20:47;10.60;;;5.13;;
60612;SDS011;46443;59.792;17.626;2023-02-15T03:23:14;10.57;;;4.53;;
60612;SDS011;46443;59.792;17.626;2023-02-15T03:25:43;10.75;;;4.80;;
60612;SDS011;46443;59.792;17.626;2023-02-15T03:28:11;11.77;;;4.90;;
60612;SDS011;46443;59.792;17.626;2023-02-15T03:30:39;10.55;;;4.70;;
60612;SDS011;46443;59.792;17.626;2023-02-15T03:33:06;8.77;;;4.57;;
60612;SDS011;46443;59.792;17.626;2023-02-15T03:35:42;9.75;;;5.15;;
60612;SDS011;46443;59.792;17.626;2023-02-15T03:38:09;9.27;;;5.05;;
60612;SDS011;46443;59.792;17.626;2023-02-15T03:40:42;11.98;;;5.05;;
60612;SDS011;46443;59.792;17.626;2023-02-15T03:43:30;12.05;;;5.75;;
60612;SDS011;46443;59.792;17.626;2023-02-15T03:46:01;9.27;;;4.43;;
60612;SDS011;46443;59.792;17.626;2023-02-15T03:49:12;9.80;;;4.70;;
60612;SDS011;46443;59.792;17.626;2023-02-15T03:51:20;11.25;;;5.55;;
60612;SDS011;46443;59.792;17.626;2023-02-15T03:54:08;12.18;;;4.47;;
60612;SDS011;46443;59.792;17.626;2023-02-15T03:56:36;10.82;;;5.28;;
60612;SDS011;46443;59.792;17.626;2023-02-15T03:59:03;9.40;;;4.30;;
60612;SDS011;46443;59.792;17.626;2023-02-15T04:01:58;9.47;;;4.40;;
60612;SDS011;46443;59.792;17.626;2023-02-15T04:06:56;9.53;;;4.80;;
60612;SDS011;46443;59.792;17.626;2023-02-15T04:09:22;11.40;;;5.10;;
60612;SDS011;46443;59.792;17.626;2023-02-15T04:12:07;11.40;;;4.40;;
60612;SDS011;46443;59.792;17.626;2023-02-15T04:14:33;12.73;;;5.28;;
60612;SDS011;46443;59.792;17.626;2023-02-15T04:17:18;9.93;;;5.20;;
60612;SDS011;46443;59.792;17.626;2023-02-15T04:19:44;11.18;;;5.10;;
60612;SDS011;46443;59.792;17.626;2023-02-15T04:22:28;11.15;;;5.25;;
60612;SDS011;46443;59.792;17.626;2023-02-15T04:25:13;12.35;;;5.28;;
60612;SDS011;46443;59.792;17.626;2023-02-15T04:27:43;10.15;;;4.88;;
60612;SDS011;46443;59.792;17.626;2023-02-15T04:30:10;11.48;;;5.30;;
60612;SDS011;46443;59.792;17.626;2023-02-15T04:32:36;11.98;;;5.65;;
60612;SDS011;46443;59.792;17.626;2023-02-15T04:35:03;10.00;;;4.93;;
60612;SDS011;46443;59.792;17.626;2023-02-15T04:37:30;10.27;;;5.20;;
60612;SDS011;46443;59.792;17.626;2023-02-15T04:39:56;14.52;;;5.65;;
60612;SDS011;46443;59.792;17.626;2023-02-15T04:42:24;15.73;;;6.30;;
60612;SDS011;46443;59.792;17.626;2023-02-15T04:44:50;15.20;;;6.30;;
60612;SDS011;46443;59.792;17.626;2023-02-15T04:47:16;16.45;;;6.25;;
60612;SDS011;46443;59.792;17.626;2023-02-15T04:49:42;15.95;;;6.20;;
60612;SDS011;46443;59.792;17.626;2023-02-15T04:52:09;14.50;;;6.88;;
60612;SDS011;46443;59.792;17.626;2023-02-15T04:54:35;19.45;;;7.15;;
60612;SDS011;46443;59.792;17.626;2023-02-15T04:57:01;18.45;;;6.75;;
60612;SDS011;46443;59.792;17.626;2023-02-15T04:59:27;17.45;;;7.55;;
60612;SDS011;46443;59.792;17.626;2023-02-15T05:01:53;17.98;;;7.00;;
60612;SDS011;46443;59.792;17.626;2023-02-15T05:04:19;14.65;;;7.18;;
60612;SDS011;46443;59.792;17.626;2023-02-15T05:06:45;18.60;;;8.00;;
60612;SDS011;46443;59.792;17.626;2023-02-15T05:09:11;17.80;;;7.55;;
60612;SDS011;46443;59.792;17.626;2023-02-15T05:11:38;15.90;;;7.20;;
60612;SDS011;46443;59.792;17.626;2023-02-15T05:14:04;18.17;;;7.20;;
60612;SDS011;46443;59.792;17.626;2023-02-15T05:16:30;16.17;;;7.05;;
60612;SDS011;46443;59.792;17.626;2023-02-15T05:18:56;16.45;;;6.22;;
60612;SDS011;46443;59.792;17.626;2023-02-15T05:21:22;14.70;;;6.57;;
60612;SDS011;46443;59.792;17.626;2023-02-15T05:23:48;14.85;;;7.30;;
60612;SDS011;46443;59.792;17.626;2023-02-15T05:26:16;18.23;;;7.57;;
60612;SDS011;46443;59.792;17.626;2023-02-15T05:29:01;19.47;;;7.00;;
60612;SDS011;46443;59.792;17.626;2023-02-15T05:31:27;14.38;;;6.65;;
60612;SDS011;46443;59.792;17.626;2023-02-15T05:33:53;15.85;;;7.13;;
60612;SDS011;46443;59.792;17.626;2023-02-15T05:36:19;20.23;;;7.68;;
60612;SDS011;46443;59.792;17.626;2023-02-15T05:38:45;15.88;;;6.95;;
60612;SDS011;46443;59.792;17.626;2023-02-15T05:41:11;15.48;;;7.65;;
60612;SDS011;46443;59.792;17.626;2023-02-15T05:43:38;16.48;;;6.70;;
60612;SDS011;46443;59.792;17.626;2023-02-15T05:46:04;16.90;;;6.82;;
60612;SDS011;46443;59.792;17.626;2023-02-15T05:48:30;16.03;;;6.37;;
60612;SDS011;46443;59.792;17.626;2023-02-15T05:51:01;13.05;;;6.30;;
60612;SDS011;46443;59.792;17.626;2023-02-15T05:53:28;15.18;;;6.72;;
60612;SDS011;46443;59.792;17.626;2023-02-15T05:55:54;18.48;;;7.28;;
60612;SDS011;46443;59.792;17.626;2023-02-15T05:58:24;15.55;;;6.85;;
60612;SDS011;46443;59.792;17.626;2023-02-15T06:00:51;16.85;;;6.15;;
60612;SDS011;46443;59.792;17.626;2023-02-15T06:03:17;15.63;;;6.63;;
60612;SDS011;46443;59.792;17.626;2023-02-15T06:05:43;16.27;;;6.72;;
60612;SDS011;46443;59.792;17.626;2023-02-15T06:08:09;17.35;;;7.40;;
60612;SDS011;46443;59.792;17.626;2023-02-15T06:10:35;13.65;;;5.60;;
60612;SDS011;46443;59.792;17.626;2023-02-15T06:13:01;15.93;;;7.77;;
60612;SDS011;46443;59.792;17.626;2023-02-15T06:15:27;14.55;;;6.40;;
60612;SDS011;46443;59.792;17.626;2023-02-15T06:17:53;16.50;;;6.90;;
60612;SDS011;46443;59.792;17.626;2023-02-15T06:20:19;20.33;;;7.60;;
60612;SDS011;46443;59.792;17.626;2023-02-15T06:22:45;14.82;;;6.50;;
60612;SDS011;46443;59.792;17.626;2023-02-15T06:25:11;19.88;;;8.40;;
60612;SDS011;46443;59.792;17.626;2023-02-15T06:27:40;24.38;;;8.70;;
60612;SDS011;46443;59.792;17.626;2023-02-15T06:30:07;15.07;;;7.13;;
60612;SDS011;46443;59.792;17.626;2023-02-15T06:32:33;18.33;;;7.45;;
60612;SDS011;46443;59.792;17.626;2023-02-15T06:34:59;17.75;;;7.57;;
60612;SDS011;46443;59.792;17.626;2023-02-15T06:37:25;18.00;;;7.13;;
60612;SDS011;46443;59.792;17.626;2023-02-15T06:39:51;17.45;;;7.10;;
60612;SDS011;46443;59.792;17.626;2023-02-15T06:42:17;17.98;;;7.90;;
60612;SDS011;46443;59.792;17.626;2023-02-15T06:44:44;17.45;;;7.60;;
60612;SDS011;46443;59.792;17.626;2023-02-15T06:47:10;15.32;;;7.63;;
60612;SDS011;46443;59.792;17.626;2023-02-15T06:49:36;16.67;;;8.15;;
60612;SDS011;46443;59.792;17.626;2023-02-15T06:52:02;18.80;;;8.20;;
60612;SDS011;46443;59.792;17.626;2023-02-15T06:54:29;17.05;;;7.00;;
60612;SDS011;46443;59.792;17.626;2023-02-15T06:56:55;18.23;;;7.90;;
60612;SDS011;46443;59.792;17.626;2023-02-15T06:59:21;17.67;;;7.68;;
60612;SDS011;46443;59.792;17.626;2023-02-15T07:01:47;20.95;;;7.28;;
60612;SDS011;46443;59.792;17.626;2023-02-15T07:04:14;20.67;;;7.95;;
60612;SDS011;46443;59.792;17.626;2023-02-15T07:06:40;20.95;;;8.73;;
60612;SDS011;46443;59.792;17.626;2023-02-15T07:09:06;19.70;;;8.70;;
60612;SDS011;46443;59.792;17.626;2023-02-15T07:11:33;18.95;;;8.02;;
60612;SDS011;46443;59.792;17.626;2023-02-15T07:14:17;16.80;;;7.38;;
60612;SDS011;46443;59.792;17.626;2023-02-15T07:16:43;18.63;;;7.65;;
60612;SDS011;46443;59.792;17.626;2023-02-15T07:19:09;19.02;;;7.38;;
60612;SDS011;46443;59.792;17.626;2023-02-15T07:21:36;17.60;;;7.27;;
60612;SDS011;46443;59.792;17.626;2023-02-15T07:24:02;23.60;;;9.00;;
60612;SDS011;46443;59.792;17.626;2023-02-15T07:26:28;15.80;;;6.40;;
60612;SDS011;46443;59.792;17.626;2023-02-15T07:28:56;22.15;;;8.40;;
60612;SDS011;46443;59.792;17.626;2023-02-15T07:31:22;21.17;;;7.97;;
60612;SDS011;46443;59.792;17.626;2023-02-15T07:33:49;21.93;;;8.10;;
60612;SDS011;46443;59.792;17.626;2023-02-15T07:36:15;20.55;;;8.05;;
60612;SDS011;46443;59.792;17.626;2023-02-15T07:38:41;17.10;;;7.18;;
60612;SDS011;46443;59.792;17.626;2023-02-15T07:41:12;18.67;;;8.40;;
60612;SDS011;46443;59.792;17.626;2023-02-15T07:43:39;18.10;;;8.02;;
60612;SDS011;46443;59.792;17.626;2023-02-15T07:46:07;17.05;;;6.82;;
60612;SDS011;46443;59.792;17.626;2023-02-15T07:48:34;19.13;;;7.73;;
60612;SDS011;46443;59.792;17.626;2023-02-15T07:51:01;19.45;;;8.35;;
60612;SDS011;46443;59.792;17.626;2023-02-15T07:53:27;19.03;;;7.83;;
60612;SDS011;46443;59.792;17.626;2023-02-15T07:55:53;16.53;;;7.23;;
60612;SDS011;46443;59.792;17.626;2023-02-15T07:58:20;18.23;;;7.82;;
60612;SDS011;46443;59.792;17.626;2023-02-15T08:01:06;19.70;;;7.67;;
60612;SDS011;46443;59.792;17.626;2023-02-15T08:03:32;17.85;;;7.18;;
60612;SDS011;46443;59.792;17.626;2023-02-15T08:05:59;16.73;;;6.67;;
60612;SDS011;46443;59.792;17.626;2023-02-15T08:08:26;18.00;;;6.80;;
60612;SDS011;46443;59.792;17.626;2023-02-15T08:11:03;16.35;;;6.82;;
60612;SDS011;46443;59.792;17.626;2023-02-15T08:13:49;17.45;;;7.20;;
60612;SDS011;46443;59.792;17.626;2023-02-15T08:18:50;16.80;;;6.80;;
60612;SDS011;46443;59.792;17.626;2023-02-15T08:21:16;17.95;;;7.07;;
60612;SDS011;46443;59.792;17.626;2023-02-15T08:23:43;18.50;;;7.97;;
60612;SDS011;46443;59.792;17.626;2023-02-15T08:26:09;15.83;;;6.67;;
60612;SDS011;46443;59.792;17.626;2023-02-15T08:28:35;16.42;;;6.22;;
60612;SDS011;46443;59.792;17.626;2023-02-15T08:31:08;16.63;;;7.40;;
60612;SDS011;46443;59.792;17.626;2023-02-15T08:33:34;15.07;;;6.53;;
60612;SDS011;46443;59.792;17.626;2023-02-15T08:36:08;19.80;;;7.82;;
60612;SDS011;46443;59.792;17.626;2023-02-15T08:38:34;15.43;;;6.40;;
60612;SDS011;46443;59.792;17.626;2023-02-15T08:41:21;14.98;;;6.30;;
60612;SDS011;46443;59.792;17.626;2023-02-15T08:43:48;20.60;;;7.05;;
60612;SDS011;46443;59.792;17.626;2023-02-15T08:46:16;18.50;;;6.88;;
60612;SDS011;46443;59.792;17.626;2023-02-15T08:48:42;14.10;;;6.63;;
60612;SDS011;46443;59.792;17.626;2023-02-15T08:51:13;19.20;;;7.00;;
60612;SDS011;46443;59.792;17.626;2023-02-15T08:53:40;16.90;;;7.37;;
60612;SDS011;46443;59.792;17.626;2023-02-15T08:56:06;16.20;;;6.63;;
60612;SDS011;46443;59.792;17.626;2023-02-15T08:58:33;17.77;;;7.30;;
60612;SDS011;46443;59.792;17.626;2023-02-15T09:00:59;13.70;;;6.00;;
60612;SDS011;46443;59.792;17.626;2023-02-15T09:03:27;17.37;;;7.33;;
60612;SDS011;46443;59.792;17.626;2023-02-15T09:05:57;15.27;;;6.63;;
60612;SDS011;46443;59.792;17.626;2023-02-15T09:08:23;15.77;;;5.78;;
60612;SDS011;46443;59.792;17.626;2023-02-15T09:10:49;14.07;;;7.40;;
60612;SDS011;46443;59.792;17.626;2023-02-15T09:13:15;14.23;;;7.23;;
60612;SDS011;46443;59.792;17.626;2023-02-15T09:15:41;14.10;;;5.93;;
60612;SDS011;46443;59.792;17.626;2023-02-15T09:18:07;16.57;;;7.13;;
60612;SDS011;46443;59.792;17.626;2023-02-15T09:20:36;14.80;;;6.50;;
60612;SDS011;46443;59.792;17.626;2023-02-15T09:23:03;17.17;;;6.93;;
60612;SDS011;46443;59.792;17.626;2023-02-15T09:25:29;19.70;;;6.93;;
60612;SDS011;46443;59.792;17.626;2023-02-15T09:27:55;16.80;;;7.40;;
60612;SDS011;46443;59.792;17.626;2023-02-15T09:30:21;14.63;;;6.10;;
60612;SDS011;46443;59.792;17.626;2023-02-15T09:32:47;16.20;;;7.33;;
60612;SDS011;46443;59.792;17.626;2023-02-15T09:35:14;16.53;;;7.00;;
60612;SDS011;46443;59.792;17.626;2023-02-15T09:37:40;18.30;;;6.72;;
60612;SDS011;46443;59.792;17.626;2023-02-15T09:40:06;14.37;;;6.73;;
60612;SDS011;46443;59.792;17.626;2023-02-15T09:45:30;14.73;;;6.32;;
60612;SDS011;46443;59.792;17.626;2023-02-15T09:51:04;15.43;;;6.00;;
60612;SDS011;46443;59.792;17.626;2023-02-15T10:12:54;13.82;;;6.85;;
60612;SDS011;46443;59.792;17.626;2023-02-15T10:22:55;14.30;;;5.20;;
60612;SDS011;46443;59.792;17.626;2023-02-15T10:28:18;17.60;;;5.75;;
60612;SDS011;46443;59.792;17.626;2023-02-15T10:30:51;15.40;;;6.72;;
60612;SDS011;46443;59.792;17.626;2023-02-15T10:33:31;13.33;;;5.57;;
60612;SDS011;46443;59.792;17.626;2023-02-15T10:36:05;16.63;;;6.67;;
60612;SDS011;46443;59.792;17.626;2023-02-15T10:41:33;13.60;;;5.90;;
60612;SDS011;46443;59.792;17.626;2023-02-15T10:49:04;15.63;;;6.13;;
60612;SDS011;46443;59.792;17.626;2023-02-15T10:54:09;15.53;;;5.47;;
60612;SDS011;46443;59.792;17.626;2023-02-15T11:07:04;13.68;;;6.00;;
60612;SDS011;46443;59.792;17.626;2023-02-15T11:09:38;12.03;;;5.37;;
60612;SDS011;46443;59.792;17.626;2023-02-15T11:12:08;14.47;;;5.97;;
60612;SDS011;46443;59.792;17.626;2023-02-15T11:14:46;18.85;;;6.63;;
60612;SDS011;46443;59.792;17.626;2023-02-15T11:17:17;15.77;;;7.03;;
60612;SDS011;46443;59.792;17.626;2023-02-15T11:22:17;13.57;;;6.17;;
60612;SDS011;46443;59.792;17.626;2023-02-15T11:24:43;16.27;;;6.00;;
60612;SDS011;46443;59.792;17.626;2023-02-15T11:32:32;13.73;;;5.85;;
60612;SDS011;46443;59.792;17.626;2023-02-15T11:37:32;15.33;;;5.93;;
60612;SDS011;46443;59.792;17.626;2023-02-15T11:40:00;13.88;;;6.07;;
60612;SDS011;46443;59.792;17.626;2023-02-15T11:42:28;15.75;;;6.75;;
60612;SDS011;46443;59.792;17.626;2023-02-15T11:47:21;14.70;;;6.37;;
60612;SDS011;46443;59.792;17.626;2023-02-15T11:49:47;18.67;;;6.67;;
60612;SDS011;46443;59.792;17.626;2023-02-15T11:52:14;16.20;;;7.53;;
60612;SDS011;46443;59.792;17.626;2023-02-15T11:54:42;16.53;;;6.90;;
60612;SDS011;46443;59.792;17.626;2023-02-15T11:57:14;17.87;;;6.97;;
60612;SDS011;46443;59.792;17.626;2023-02-15T11:59:45;15.17;;;6.23;;
60612;SDS011;46443;59.792;17.626;2023-02-15T12:02:15;20.67;;;7.10;;
60612;SDS011;46443;59.792;17.626;2023-02-15T12:04:43;13.88;;;5.85;;
60612;SDS011;46443;59.792;17.626;2023-02-15T12:09:51;18.52;;;7.18;;
60612;SDS011;46443;59.792;17.626;2023-02-15T12:12:21;18.55;;;7.72;;
60612;SDS011;46443;59.792;17.626;2023-02-15T12:14:49;16.48;;;6.35;;
60612;SDS011;46443;59.792;17.626;2023-02-15T12:17:16;18.95;;;7.43;;
60612;SDS011;46443;59.792;17.626;2023-02-15T12:19:42;14.50;;;6.47;;
60612;SDS011;46443;59.792;17.626;2023-02-15T12:22:31;16.80;;;7.27;;
60612;SDS011;46443;59.792;17.626;2023-02-15T12:25:00;17.33;;;7.00;;
60612;SDS011;46443;59.792;17.626;2023-02-15T12:27:28;18.63;;;6.60;;
60612;SDS011;46443;59.792;17.626;2023-02-15T12:32:25;13.50;;;6.00;;
60612;SDS011;46443;59.792;17.626;2023-02-15T12:34:53;16.20;;;5.80;;
60612;SDS011;46443;59.792;17.626;2023-02-15T12:37:21;15.53;;;6.37;;
60612;SDS011;46443;59.792;17.626;2023-02-15T12:39:55;18.10;;;6.23;;
60612;SDS011;46443;59.792;17.626;2023-02-15T12:42:23;18.23;;;6.60;;
60612;SDS011;46443;59.792;17.626;2023-02-15T12:47:19;16.02;;;7.15;;
60612;SDS011;46443;59.792;17.626;2023-02-15T12:50:03;21.10;;;6.97;;
60612;SDS011;46443;59.792;17.626;2023-02-15T12:52:30;16.57;;;6.90;;
60612;SDS011;46443;59.792;17.626;2023-02-15T12:54:56;18.70;;;6.67;;
60612;SDS011;46443;59.792;17.626;2023-02-15T12:57:35;15.50;;;5.95;;
60612;SDS011;46443;59.792;17.626;2023-02-15T13:02:50;18.20;;;7.13;;
60612;SDS011;46443;59.792;17.626;2023-02-15T13:08:01;14.33;;;5.80;;
60612;SDS011;46443;59.792;17.626;2023-02-15T13:10:31;15.25;;;6.75;;
60612;SDS011;46443;59.792;17.626;2023-02-15T13:12:59;17.00;;;6.77;;
60612;SDS011;46443;59.792;17.626;2023-02-15T13:15:32;16.93;;;7.07;;
60612;SDS011;46443;59.792;17.626;2023-02-15T13:17:59;15.00;;;5.67;;
60612;SDS011;46443;59.792;17.626;2023-02-15T13:20:27;16.55;;;6.28;;
60612;SDS011;46443;59.792;17.626;2023-02-15T13:23:01;15.45;;;6.03;;
60612;SDS011;46443;59.792;17.626;2023-02-15T13:25:31;18.13;;;7.00;;
60612;SDS011;46443;59.792;17.626;2023-02-15T13:28:03;19.07;;;7.07;;
60612;SDS011;46443;59.792;17.626;2023-02-15T13:33:05;19.50;;;6.43;;
60612;SDS011;46443;59.792;17.626;2023-02-15T13:35:42;19.02;;;7.18;;
60612;SDS011;46443;59.792;17.626;2023-02-15T13:38:22;18.70;;;7.20;;
60612;SDS011;46443;59.792;17.626;2023-02-15T13:40:53;17.33;;;6.70;;
60612;SDS011;46443;59.792;17.626;2023-02-15T13:43:43;18.30;;;6.70;;
60612;SDS011;46443;59.792;17.626;2023-02-15T14:04:50;20.67;;;7.87;;
60612;SDS011;46443;59.792;17.626;2023-02-15T14:14:59;16.03;;;6.53;;
60612;SDS011;46443;59.792;17.626;2023-02-15T14:22:45;23.77;;;9.07;;
60612;SDS011;46443;59.792;17.626;2023-02-15T14:25:21;19.60;;;6.50;;
60612;SDS011;46443;59.792;17.626;2023-02-15T14:30:36;16.77;;;7.18;;
60612;SDS011;46443;59.792;17.626;2023-02-15T14:33:07;22.63;;;9.30;;
60612;SDS011;46443;59.792;17.626;2023-02-15T14:35:33;17.38;;;7.25;;
60612;SDS011;46443;59.792;17.626;2023-02-15T14:38:14;22.50;;;7.88;;
60612;SDS011;46443;59.792;17.626;2023-02-15T14:46:16;20.13;;;7.50;;
60612;SDS011;46443;59.792;17.626;2023-02-15T14:48:45;20.73;;;8.40;;
60612;SDS011;46443;59.792;17.626;2023-02-15T14:53:57;16.05;;;6.80;;
60612;SDS011;46443;59.792;17.626;2023-02-15T14:56:23;20.30;;;7.60;;
60612;SDS011;46443;59.792;17.626;2023-02-15T15:01:24;25.38;;;7.70;;
60612;SDS011;46443;59.792;17.626;2023-02-15T15:03:51;18.05;;;7.15;;
60612;SDS011;46443;59.792;17.626;2023-02-15T15:06:26;22.75;;;7.97;;
60612;SDS011;46443;59.792;17.626;2023-02-15T15:08:55;19.05;;;7.10;;
60612;SDS011;46443;59.792;17.626;2023-02-15T15:13:54;18.50;;;7.80;;
60612;SDS011;46443;59.792;17.626;2023-02-15T15:19:11;21.10;;;7.78;;
60612;SDS011;46443;59.792;17.626;2023-02-15T15:29:45;19.40;;;7.90;;
60612;SDS011;46443;59.792;17.626;2023-02-15T15:32:11;21.38;;;7.65;;
60612;SDS011;46443;59.792;17.626;2023-02-15T15:42:54;21.95;;;7.78;;
60612;SDS011;46443;59.792;17.626;2023-02-15T15:50:34;15.30;;;6.43;;
60612;SDS011;46443;59.792;17.626;2023-02-15T15:53:01;21.33;;;7.05;;
60612;SDS011;46443;59.792;17.626;2023-02-15T15:55:29;16.88;;;6.57;;
60612;SDS011;46443;59.792;17.626;2023-02-15T15:57:56;19.17;;;6.32;;
60612;SDS011;46443;59.792;17.626;2023-02-15T16:02:51;15.25;;;6.72;;
60612;SDS011;46443;59.792;17.626;2023-02-15T16:05:17;17.13;;;6.35;;
60612;SDS011;46443;59.792;17.626;2023-02-15T16:07:44;19.98;;;7.13;;
60612;SDS011;46443;59.792;17.626;2023-02-15T16:10:23;17.58;;;6.60;;
60612;SDS011;46443;59.792;17.626;2023-02-15T16:12:49;22.33;;;7.18;;
60612;SDS011;46443;59.792;17.626;2023-02-15T16:18:01;23.88;;;7.70;;
60612;SDS011;46443;59.792;17.626;2023-02-15T16:20:29;17.50;;;6.05;;
60612;SDS011;46443;59.792;17.626;2023-02-15T16:28:18;18.33;;;6.30;;
60612;SDS011;46443;59.792;17.626;2023-02-15T16:30:45;15.70;;;6.25;;
60612;SDS011;46443;59.792;17.626;2023-02-15T16:35:41;16.90;;;7.22;;
60612;SDS011;46443;59.792;17.626;2023-02-15T16:38:19;19.30;;;7.18;;
60612;SDS011;46443;59.792;17.626;2023-02-15T16:40:47;15.63;;;6.43;;
60612;SDS011;46443;59.792;17.626;2023-02-15T16:43:19;14.55;;;5.80;;
60612;SDS011;46443;59.792;17.626;2023-02-15T16:45:46;16.45;;;6.47;;
60612;SDS011;46443;59.792;17.626;2023-02-15T16:48:23;17.45;;;6.20;;
60612;SDS011;46443;59.792;17.626;2023-02-15T16:50:51;16.95;;;6.10;;
60612;SDS011;46443;59.792;17.626;2023-02-15T16:53:36;16.83;;;6.22;;
60612;SDS011;46443;59.792;17.626;2023-02-15T16:56:03;15.02;;;6.35;;
60612;SDS011;46443;59.792;17.626;2023-02-15T16:58:37;16.10;;;6.05;;
60612;SDS011;46443;59.792;17.626;2023-02-15T17:01:05;16.95;;;6.32;;
60612;SDS011;46443;59.792;17.626;2023-02-15T17:03:32;17.75;;;6.53;;
60612;SDS011;46443;59.792;17.626;2023-02-15T17:05:59;18.08;;;6.88;;
60612;SDS011;46443;59.792;17.626;2023-02-15T17:13:24;14.45;;;6.38;;
60612;SDS011;46443;59.792;17.626;2023-02-15T17:18:29;19.92;;;6.90;;
60612;SDS011;46443;59.792;17.626;2023-02-15T17:21:12;16.02;;;5.55;;
60612;SDS011;46443;59.792;17.626;2023-02-15T17:23:43;20.13;;;7.18;;
60612;SDS011;46443;59.792;17.626;2023-02-15T17:26:14;15.45;;;6.47;;
60612;SDS011;46443;59.792;17.626;2023-02-15T17:28:45;14.75;;;6.07;;
60612;SDS011;46443;59.792;17.626;2023-02-15T17:31:12;17.10;;;6.03;;
60612;SDS011;46443;59.792;17.626;2023-02-15T17:33:39;17.35;;;8.07;;
60612;SDS011;46443;59.792;17.626;2023-02-15T17:38:32;17.77;;;6.38;;
60612;SDS011;46443;59.792;17.626;2023-02-15T17:40:58;15.82;;;5.95;;
60612;SDS011;46443;59.792;17.626;2023-02-15T17:43:24;14.55;;;5.45;;
60612;SDS011;46443;59.792;17.626;2023-02-15T17:45:51;16.30;;;6.80;;
60612;SDS011;46443;59.792;17.626;2023-02-15T17:48:36;16.77;;;7.07;;
60612;SDS011;46443;59.792;17.626;2023-02-15T17:51:04;17.48;;;6.55;;
60612;SDS011;46443;59.792;17.626;2023-02-15T17:53:30;16.17;;;6.43;;
60612;SDS011;46443;59.792;17.626;2023-02-15T17:55:57;20.98;;;7.63;;
60612;SDS011;46443;59.792;17.626;2023-02-15T17:58:23;17.25;;;6.47;;